Time;durP1;ratioP1;P1;durP2;ratioP2;P2;SDS_P1;SDS_P2;PMS_P1;PMS_P2;Temp;Humidity;BMP_temperature;BMP_pressure;BME280_temperature;BME280_humidity;BME280_pressure;Samples;Min_cycle;Max_cycle;Signal;HPM_P1;HPM_P2
2022/04/15 00:01:25;;;;;;;14.40;8.87;;;11.40;99.90;;;;;;5050683;28;20784;-39
2022/04/15 00:03:51;;;;;;;9.90;7.20;;;11.30;99.90;;;;;;5064554;28;20194;-41
2022/04/15 00:06:17;;;;;;;8.67;7.77;;;11.40;99.90;;;;;;5068937;28;20603;-40
2022/04/15 00:08:43;;;;;;;9.17;7.57;;;11.30;99.90;;;;;;5051715;28;20424;-39
2022/04/15 00:11:09;;;;;;;13.73;8.23;;;11.30;99.90;;;;;;5059663;28;20776;-40
2022/04/15 00:13:35;;;;;;;9.90;8.57;;;11.20;99.90;;;;;;5084516;28;20513;-41
2022/04/15 00:16:03;;;;;;;10.50;7.77;;;11.20;99.90;;;;;;5059681;28;20220;-40
2022/04/15 00:18:28;;;;;;;10.37;7.90;;;11.10;99.90;;;;;;5072648;28;20837;-38
2022/04/15 00:20:54;;;;;;;9.80;8.13;;;11.00;99.90;;;;;;5068436;28;20425;-36
2022/04/15 00:23:23;;;;;;;9.83;7.97;;;10.90;99.90;;;;;;5061931;28;20739;-38
2022/04/15 00:25:49;;;;;;;10.50;8.40;;;10.80;99.90;;;;;;5053494;28;20446;-38
2022/04/15 00:28:16;;;;;;;10.53;8.80;;;10.90;99.90;;;;;;5051321;28;20427;-41
2022/04/15 00:30:41;;;;;;;9.50;8.50;;;11.10;99.90;;;;;;5050861;28;20431;-40
2022/04/15 00:33:07;;;;;;;11.60;8.53;;;10.80;99.90;;;;;;5065472;28;20941;-39
2022/04/15 00:35:33;;;;;;;11.43;7.93;;;11.00;99.90;;;;;;5075631;28;20571;-37
2022/04/15 00:37:59;;;;;;;10.63;8.67;;;10.80;99.90;;;;;;5051189;28;20231;-40
2022/04/15 00:40:24;;;;;;;9.27;8.17;;;10.70;99.90;;;;;;5052311;28;20190;-35
2022/04/15 00:42:50;;;;;;;11.43;8.60;;;10.90;99.90;;;;;;5078930;28;20201;-41
2022/04/15 00:45:16;;;;;;;10.10;9.00;;;10.70;99.90;;;;;;5073519;28;20188;-39
2022/04/15 00:47:59;;;;;;;13.77;8.90;;;10.70;99.90;;;;;;5052586;28;20785;-40
2022/04/15 00:50:30;;;;;;;10.87;9.27;;;10.70;99.90;;;;;;5077223;28;20627;-40
2022/04/15 00:52:58;;;;;;;10.73;8.93;;;10.70;99.90;;;;;;5076953;28;20440;-41
2022/04/15 00:55:25;;;;;;;10.83;8.83;;;11.00;99.90;;;;;;5067164;28;20533;-40
2022/04/15 00:57:53;;;;;;;10.70;9.60;;;10.80;99.90;;;;;;5056719;28;20806;-38
2022/04/15 01:00:20;;;;;;;9.87;8.40;;;10.80;99.90;;;;;;5050240;28;20755;-40
2022/04/15 01:02:46;;;;;;;11.67;10.47;;;11.00;99.90;;;;;;5052509;28;20460;-38
2022/04/15 01:05:14;;;;;;;12.20;10.10;;;11.10;99.90;;;;;;5073229;28;20414;-40
2022/04/15 01:07:47;;;;;;;11.43;9.63;;;11.10;99.90;;;;;;5073388;28;20465;-41
2022/04/15 01:10:14;;;;;;;12.87;10.07;;;11.10;99.90;;;;;;5050725;28;20574;-40
2022/04/15 01:12:46;;;;;;;11.77;10.30;;;11.10;99.90;;;;;;5054230;28;20424;-40
2022/04/15 01:15:13;;;;;;;15.63;11.53;;;11.10;99.90;;;;;;5050572;28;20423;-39
2022/04/15 01:17:40;;;;;;;12.80;10.90;;;11.20;99.90;;;;;;5055231;28;20907;-37
2022/04/15 01:20:10;;;;;;;13.10;11.70;;;11.30;99.90;;;;;;5064785;28;20418;-40
2022/04/15 01:22:44;;;;;;;15.03;11.73;;;11.00;99.90;;;;;;5060616;28;20539;-39
2022/04/15 01:25:14;;;;;;;17.83;12.00;;;11.10;99.90;;;;;;5054325;28;20435;-41
2022/04/15 01:27:45;;;;;;;17.40;10.20;;;10.90;99.90;;;;;;5063132;28;20887;-36
2022/04/15 01:30:19;;;;;;;14.17;11.60;;;11.00;99.90;;;;;;5049787;28;20423;-39
2022/04/15 01:32:47;;;;;;;14.77;11.30;;;10.90;99.90;;;;;;5051182;28;20483;-37
2022/04/15 01:35:14;;;;;;;13.67;11.00;;;10.90;99.90;;;;;;5069476;28;20957;-41
2022/04/15 01:37:41;;;;;;;12.93;11.27;;;10.90;99.90;;;;;;5058206;28;20470;-37
2022/04/15 01:40:09;;;;;;;12.87;10.83;;;10.90;99.90;;;;;;5049081;28;20423;-41
2022/04/15 01:42:36;;;;;;;14.17;12.10;;;10.80;99.90;;;;;;5069387;28;20488;-38
2022/04/15 01:45:02;;;;;;;12.73;11.00;;;11.00;99.90;;;;;;5075803;28;20471;-37
2022/04/15 01:47:28;;;;;;;12.23;10.27;;;11.00;99.90;;;;;;5049132;28;20463;-36
2022/04/15 01:49:54;;;;;;;16.50;11.27;;;11.00;99.90;;;;;;5070650;28;20539;-38
2022/04/15 01:52:19;;;;;;;15.30;10.00;;;10.80;99.90;;;;;;5065464;28;20178;-41
2022/04/15 01:54:46;;;;;;;14.30;10.57;;;10.90;99.90;;;;;;5049863;28;20477;-40
2022/04/15 01:57:12;;;;;;;13.80;10.80;;;11.00;99.90;;;;;;5054044;28;20221;-39
2022/04/15 01:59:38;;;;;;;11.43;10.30;;;10.80;99.90;;;;;;5049324;28;20425;-39
2022/04/15 02:02:05;;;;;;;14.33;10.23;;;10.80;99.90;;;;;;5049122;28;20217;-40
2022/04/15 02:04:31;;;;;;;11.37;10.20;;;10.80;99.90;;;;;;5066588;28;20433;-39
2022/04/15 02:06:57;;;;;;;11.27;9.80;;;10.70;99.90;;;;;;5068305;28;20787;-38
2022/04/15 02:09:22;;;;;;;13.90;10.20;;;10.80;99.90;;;;;;5049646;28;20429;-40
2022/04/15 02:11:49;;;;;;;10.13;9.10;;;10.70;99.90;;;;;;5058137;28;20417;-35
2022/04/15 02:14:16;;;;;;;12.80;9.30;;;10.60;99.90;;;;;;5058377;28;20969;-39
2022/04/15 02:16:42;;;;;;;11.97;9.53;;;10.60;99.90;;;;;;5080460;28;20953;-36
2022/04/15 02:19:08;;;;;;;12.97;10.00;;;10.90;99.90;;;;;;5059190;28;20432;-37
2022/04/15 02:21:34;;;;;;;12.53;10.27;;;10.70;99.90;;;;;;5076787;28;20534;-36
2022/04/15 02:23:59;;;;;;;11.77;9.20;;;10.60;99.90;;;;;;5052914;28;20425;-40
2022/04/15 02:26:25;;;;;;;11.50;9.70;;;10.70;99.90;;;;;;5054842;28;20185;-38
2022/04/15 02:28:51;;;;;;;12.33;9.63;;;10.60;99.90;;;;;;5052669;28;20177;-40
2022/04/15 02:31:17;;;;;;;9.10;8.20;;;10.50;99.90;;;;;;5048536;28;20417;-39
2022/04/15 02:33:43;;;;;;;13.83;9.57;;;10.50;99.90;;;;;;5055171;28;20207;-38
2022/04/15 02:36:09;;;;;;;12.77;10.17;;;10.50;99.90;;;;;;5075130;28;20426;-37
2022/04/15 02:38:35;;;;;;;14.27;9.47;;;10.60;99.90;;;;;;5070016;28;20243;-40
2022/04/15 02:41:03;;;;;;;10.50;9.00;;;10.40;99.90;;;;;;5053069;28;20188;-38
2022/04/15 02:43:31;;;;;;;11.07;9.90;;;10.30;99.90;;;;;;5072983;28;20456;-40
2022/04/15 02:45:59;;;;;;;10.13;8.70;;;10.30;99.90;;;;;;5048901;28;20907;-40
2022/04/15 02:48:25;;;;;;;12.07;9.20;;;10.20;99.90;;;;;;5047426;28;20974;-39
2022/04/15 02:50:51;;;;;;;11.13;9.87;;;10.30;99.90;;;;;;5083061;28;20962;-35
2022/04/15 02:53:17;;;;;;;9.83;8.50;;;10.20;99.90;;;;;;5050244;28;20428;-37
2022/04/15 02:55:42;;;;;;;10.47;9.43;;;10.00;99.90;;;;;;5048879;28;20490;-39
2022/04/15 02:58:08;;;;;;;10.63;9.40;;;10.10;99.90;;;;;;5050290;28;20427;-41
2022/04/15 03:00:34;;;;;;;9.87;8.87;;;10.00;99.90;;;;;;5073943;28;20184;-37
2022/04/15 03:02:59;;;;;;;11.70;9.40;;;10.00;99.90;;;;;;5054794;28;20213;-39
2022/04/15 03:05:25;;;;;;;13.57;10.00;;;9.80;99.90;;;;;;5066470;28;20539;-39
2022/04/15 03:07:52;;;;;;;14.60;9.37;;;9.90;99.90;;;;;;5053519;28;20185;-37
2022/04/15 03:10:18;;;;;;;11.97;8.53;;;10.00;99.90;;;;;;5048153;28;20192;-39
2022/04/15 03:12:44;;;;;;;10.60;9.10;;;9.70;99.90;;;;;;5058251;28;20919;-37
2022/04/15 03:15:10;;;;;;;10.23;9.23;;;9.70;99.90;;;;;;5048588;28;20189;-40
2022/04/15 03:17:36;;;;;;;14.10;9.60;;;9.60;99.90;;;;;;5064617;28;20189;-38
2022/04/15 03:20:02;;;;;;;11.13;9.83;;;9.50;99.90;;;;;;5048979;28;20640;-38
2022/04/15 03:22:38;;;;;;;11.73;9.20;;;9.50;99.90;;;;;;5068987;28;20460;-40
2022/04/15 03:25:06;;;;;;;14.00;9.83;;;9.50;99.90;;;;;;5060726;28;20420;-35
2022/04/15 03:27:32;;;;;;;13.20;9.73;;;9.40;99.90;;;;;;5054183;28;20447;-40
2022/04/15 03:29:58;;;;;;;13.20;9.40;;;9.30;99.90;;;;;;5048267;28;20456;-40
2022/04/15 03:32:24;;;;;;;10.97;9.83;;;9.50;99.90;;;;;;5047328;28;20416;-40
2022/04/15 03:34:54;;;;;;;12.07;10.70;;;9.50;99.90;;;;;;5053506;28;20435;-38
2022/04/15 03:37:19;;;;;;;10.13;8.90;;;9.50;99.90;;;;;;5070374;28;20418;-38
2022/04/15 03:39:45;;;;;;;11.80;9.50;;;9.30;99.90;;;;;;5050767;28;20459;-39
2022/04/15 03:42:11;;;;;;;10.03;8.93;;;9.30;99.90;;;;;;5068891;28;20216;-38
2022/04/15 03:44:37;;;;;;;13.80;11.10;;;9.30;99.90;;;;;;5063965;28;20181;-39
2022/04/15 03:47:06;;;;;;;12.43;9.77;;;9.30;99.90;;;;;;5048369;28;20208;-41
2022/04/15 03:49:33;;;;;;;12.93;9.70;;;9.40;99.90;;;;;;5057649;28;20646;-40
2022/04/15 03:51:59;;;;;;;13.60;10.43;;;9.60;99.90;;;;;;5065332;28;20427;-40
2022/04/15 03:54:24;;;;;;;14.43;10.70;;;9.40;99.90;;;;;;5065647;28;20539;-41
2022/04/15 03:56:50;;;;;;;14.37;11.03;;;9.50;99.90;;;;;;5074979;28;20485;-36
2022/04/15 03:59:16;;;;;;;13.87;10.93;;;9.50;99.90;;;;;;5055524;28;20190;-35
2022/04/15 04:01:42;;;;;;;13.27;11.67;;;9.60;99.90;;;;;;5047484;28;20260;-40
2022/04/15 04:04:08;;;;;;;14.03;11.47;;;9.80;99.90;;;;;;5055181;28;21071;-38
2022/04/15 04:06:34;;;;;;;14.23;12.10;;;9.80;99.90;;;;;;5062762;28;20404;-41
2022/04/15 04:09:00;;;;;;;14.47;11.53;;;9.70;99.90;;;;;;5062878;28;20408;-40
2022/04/15 04:11:26;;;;;;;13.47;12.07;;;9.60;99.90;;;;;;5051023;28;20426;-40
2022/04/15 04:13:52;;;;;;;15.20;12.57;;;9.50;99.90;;;;;;5057651;28;20186;-40
2022/04/15 04:16:18;;;;;;;15.63;11.77;;;9.50;99.90;;;;;;5051739;28;20202;-39
2022/04/15 04:18:44;;;;;;;16.50;12.80;;;9.50;99.90;;;;;;5051154;28;20513;-40
2022/04/15 04:21:10;;;;;;;15.70;12.30;;;9.30;99.90;;;;;;5072791;28;20411;-37
2022/04/15 04:23:37;;;;;;;15.83;12.53;;;9.20;99.90;;;;;;5064395;28;20447;-40
2022/04/15 04:26:03;;;;;;;16.43;13.80;;;9.40;99.90;;;;;;5068583;28;20955;-40
2022/04/15 04:28:29;;;;;;;13.87;11.90;;;9.40;99.90;;;;;;5061740;28;20749;-36
2022/04/15 04:30:55;;;;;;;14.07;11.80;;;9.40;99.90;;;;;;5050965;28;20420;-38
2022/04/15 04:33:21;;;;;;;16.27;12.43;;;9.40;99.90;;;;;;5050646;28;20424;-35
2022/04/15 04:35:48;;;;;;;15.30;12.93;;;9.60;99.90;;;;;;5064058;28;20412;-34
2022/04/15 04:38:13;;;;;;;16.00;13.67;;;9.50;99.90;;;;;;5078983;28;20962;-37
2022/04/15 04:40:40;;;;;;;15.97;13.27;;;9.40;99.90;;;;;;5049354;28;20418;-39
2022/04/15 04:43:06;;;;;;;15.70;13.43;;;9.40;99.90;;;;;;5061775;28;20295;-38
2022/04/15 04:45:33;;;;;;;16.30;13.10;;;9.40;99.90;;;;;;5050475;28;20412;-40
2022/04/15 04:48:00;;;;;;;14.33;11.80;;;9.40;99.90;;;;;;5073682;28;20784;-38
2022/04/15 04:50:26;;;;;;;15.40;13.00;;;9.40;99.90;;;;;;5066390;28;20457;-37
2022/04/15 04:52:52;;;;;;;14.43;11.90;;;9.50;99.90;;;;;;5077629;28;20425;-38
2022/04/15 04:55:18;;;;;;;16.57;11.63;;;9.40;99.90;;;;;;5050943;28;20428;-38
2022/04/15 04:57:45;;;;;;;12.97;10.83;;;9.50;99.90;;;;;;5057901;28;20193;-38
2022/04/15 05:00:13;;;;;;;13.57;10.50;;;9.60;99.90;;;;;;5050214;28;20419;-41
2022/04/15 05:02:39;;;;;;;11.73;10.43;;;9.70;99.90;;;;;;5050922;28;20791;-38
2022/04/15 05:05:06;;;;;;;13.60;11.10;;;9.60;99.90;;;;;;5059090;28;20452;-36
2022/04/15 05:07:32;;;;;;;15.40;12.30;;;9.90;99.90;;;;;;5076587;28;20469;-37
2022/04/15 05:09:58;;;;;;;16.90;13.00;;;9.70;99.90;;;;;;5050048;28;20428;-36
2022/04/15 05:12:23;;;;;;;15.40;11.70;;;9.70;99.90;;;;;;5053787;28;20181;-41
2022/04/15 05:14:50;;;;;;;16.00;11.93;;;9.80;99.90;;;;;;5052319;28;20264;-41
2022/04/15 05:17:16;;;;;;;17.47;12.10;;;9.80;99.90;;;;;;5085479;28;20864;-40
2022/04/15 05:19:42;;;;;;;18.80;12.70;;;9.80;99.90;;;;;;5059227;28;20473;-41
2022/04/15 05:22:08;;;;;;;17.80;12.53;;;9.80;99.90;;;;;;5080722;28;20509;-36
2022/04/15 05:24:34;;;;;;;15.23;13.10;;;10.00;99.90;;;;;;5071169;28;20435;-38
2022/04/15 05:27:00;;;;;;;19.53;13.03;;;9.60;99.90;;;;;;5079990;28;20425;-35
2022/04/15 05:29:26;;;;;;;16.57;13.37;;;9.60;99.90;;;;;;5061958;28;20648;-38
2022/04/15 05:31:51;;;;;;;18.10;12.97;;;9.60;99.90;;;;;;5049479;28;20197;-37
2022/04/15 05:34:17;;;;;;;15.73;12.10;;;9.70;99.90;;;;;;5054367;28;20220;-39
2022/04/15 05:36:43;;;;;;;16.73;11.90;;;9.90;99.90;;;;;;5055369;28;20186;-39
2022/04/15 05:39:08;;;;;;;14.97;11.20;;;9.70;99.90;;;;;;5068204;28;20229;-42
2022/04/15 05:41:34;;;;;;;14.97;11.87;;;9.80;99.90;;;;;;5049469;28;20193;-37
2022/04/15 05:44:03;;;;;;;16.33;12.93;;;9.90;99.90;;;;;;5057475;28;20552;-40
2022/04/15 05:46:32;;;;;;;16.53;11.87;;;9.90;99.90;;;;;;5049967;28;20225;-38
2022/04/15 05:48:58;;;;;;;16.93;12.73;;;9.90;99.90;;;;;;5049700;28;20424;-41
2022/04/15 05:51:24;;;;;;;17.60;13.03;;;10.00;99.90;;;;;;5054562;28;20574;-37
2022/04/15 05:53:49;;;;;;;18.33;14.23;;;9.80;99.90;;;;;;5075466;28;20272;-40
2022/04/15 05:56:15;;;;;;;18.60;14.97;;;10.00;99.90;;;;;;5054295;28;20509;-38
2022/04/15 05:58:41;;;;;;;17.37;14.30;;;9.50;99.90;;;;;;5053101;28;20182;-39
2022/04/15 06:01:09;;;;;;;20.90;14.77;;;9.50;99.90;;;;;;5059280;28;20205;-40
2022/04/15 06:03:38;;;;;;;17.70;13.90;;;9.60;99.90;;;;;;5048070;28;20213;-37
2022/04/15 06:06:05;;;;;;;23.50;13.70;;;9.60;99.90;;;;;;5057541;28;20434;-37
2022/04/15 06:08:31;;;;;;;16.73;13.20;;;9.60;99.90;;;;;;5074521;28;20416;-35
2022/04/15 06:10:57;;;;;;;16.90;11.90;;;9.50;99.90;;;;;;5048825;28;20506;-37
2022/04/15 06:13:24;;;;;;;15.67;11.53;;;9.60;99.90;;;;;;5064376;28;20576;-38
2022/04/15 06:15:56;;;;;;;17.40;12.90;;;9.50;99.90;;;;;;5070757;28;20292;-40
2022/04/15 06:18:31;;;;;;;14.87;11.93;;;9.60;99.90;;;;;;5049267;28;20424;-40
2022/04/15 06:20:57;;;;;;;13.70;11.53;;;9.70;99.90;;;;;;5059014;28;20501;-39
2022/04/15 06:23:23;;;;;;;13.37;10.90;;;9.80;99.90;;;;;;5066219;28;20814;-37
2022/04/15 06:25:48;;;;;;;14.30;10.80;;;9.80;99.90;;;;;;5048026;28;20428;-39
2022/04/15 06:28:14;;;;;;;17.70;10.47;;;9.90;99.90;;;;;;5054524;28;20596;-38
2022/04/15 06:30:40;;;;;;;12.97;10.40;;;9.90;99.90;;;;;;5049130;28;20190;-38
2022/04/15 06:33:08;;;;;;;13.63;10.77;;;9.90;99.90;;;;;;5049064;28;20776;-40
2022/04/15 06:35:34;;;;;;;14.10;10.53;;;9.70;99.90;;;;;;5056479;28;20199;-40
2022/04/15 06:38:01;;;;;;;13.00;9.57;;;9.80;99.90;;;;;;5073335;28;20443;-38
2022/04/15 06:40:26;;;;;;;13.33;10.13;;;9.70;99.90;;;;;;5070546;28;20428;-35
2022/04/15 06:42:52;;;;;;;13.73;9.73;;;9.70;99.90;;;;;;5062569;28;20475;-37
2022/04/15 06:45:18;;;;;;;19.00;11.00;;;9.50;99.90;;;;;;5067462;28;20188;-38
2022/04/15 06:47:43;;;;;;;16.30;11.27;;;9.70;99.90;;;;;;5060396;28;20204;-35
2022/04/15 06:50:09;;;;;;;13.30;10.20;;;9.70;99.90;;;;;;5060755;28;20248;-39
2022/04/15 06:52:36;;;;;;;15.20;10.43;;;9.70;99.90;;;;;;5075215;28;20191;-39
2022/04/15 06:55:02;;;;;;;15.20;11.10;;;9.60;99.90;;;;;;5051183;28;20424;-40
2022/04/15 06:57:27;;;;;;;15.20;11.10;;;9.70;99.90;;;;;;5048960;28;20446;-38
2022/04/15 06:59:53;;;;;;;11.57;10.30;;;9.70;99.90;;;;;;5060862;28;20439;-39
2022/04/15 07:02:19;;;;;;;15.00;9.17;;;9.70;99.90;;;;;;5048845;28;20742;-39
2022/04/15 07:04:44;;;;;;;11.87;9.43;;;9.60;99.90;;;;;;5047855;28;20190;-40
2022/04/15 07:07:10;;;;;;;12.90;9.90;;;9.60;99.90;;;;;;5062622;28;20176;-40
2022/04/15 07:09:36;;;;;;;12.00;9.70;;;9.90;99.90;;;;;;5066066;28;20282;-40
2022/04/15 07:12:02;;;;;;;11.07;9.60;;;9.60;99.90;;;;;;5048730;28;20220;-40
2022/04/15 07:14:29;;;;;;;12.13;9.20;;;9.80;99.90;;;;;;5055179;28;20193;-39
2022/04/15 07:16:55;;;;;;;11.07;8.93;;;9.80;99.90;;;;;;5082933;28;20430;-41
2022/04/15 07:19:20;;;;;;;13.40;9.30;;;9.80;99.90;;;;;;5052288;28;20515;-38
2022/04/15 07:21:46;;;;;;;9.97;8.97;;;9.70;99.90;;;;;;5068607;28;20200;-38
2022/04/15 07:24:12;;;;;;;10.20;8.33;;;9.80;99.90;;;;;;5064928;28;20189;-39
2022/04/15 07:26:38;;;;;;;12.50;8.77;;;10.00;99.90;;;;;;5048684;28;20261;-37
2022/04/15 07:29:04;;;;;;;8.90;8.00;;;9.90;99.90;;;;;;5054069;28;20185;-38
2022/04/15 07:31:30;;;;;;;11.70;8.13;;;9.80;99.90;;;;;;5047917;28;21262;-37
2022/04/15 07:33:56;;;;;;;10.77;8.53;;;9.90;99.90;;;;;;5047405;28;20435;-40
2022/04/15 07:39:07;;;;;;;10.57;8.00;;;9.80;99.90;;;;;;5062384;28;20181;-35
2022/04/15 07:41:36;;;;;;;9.37;6.73;;;9.90;99.90;;;;;;5074547;28;20528;-40
2022/04/15 07:44:03;;;;;;;5.00;4.50;;;9.90;99.90;;;;;;5074386;28;20562;-35
2022/04/15 07:46:29;;;;;;;5.77;4.87;;;10.20;99.90;;;;;;5052322;28;20452;-37
2022/04/15 07:48:55;;;;;;;4.57;3.97;;;10.10;99.90;;;;;;5054916;28;21241;-38
2022/04/15 07:51:21;;;;;;;4.17;3.57;;;10.20;99.90;;;;;;5062369;28;20185;-38
2022/04/15 07:53:46;;;;;;;4.63;4.23;;;10.40;99.90;;;;;;5066548;28;20182;-41
2022/04/15 07:56:12;;;;;;;4.80;3.70;;;10.70;99.90;;;;;;5063432;28;20216;-38
2022/04/15 07:58:38;;;;;;;4.93;4.23;;;10.60;99.90;;;;;;5065299;28;20179;-41
2022/04/15 08:01:04;;;;;;;5.00;3.87;;;10.80;99.90;;;;;;5057086;28;20281;-40
2022/04/15 08:03:29;;;;;;;6.13;3.93;;;10.80;99.90;;;;;;5076679;28;20950;-40
2022/04/15 08:05:55;;;;;;;4.40;3.87;;;11.00;99.90;;;;;;5060825;28;20189;-36
2022/04/15 08:08:21;;;;;;;5.63;3.97;;;11.00;99.90;;;;;;5064917;28;20177;-39
2022/04/15 08:10:48;;;;;;;3.93;3.63;;;10.90;99.90;;;;;;5066244;28;20188;-37
2022/04/15 08:13:14;;;;;;;5.27;3.47;;;10.90;99.90;;;;;;5072360;28;20242;-36
2022/04/15 08:15:40;;;;;;;3.80;3.47;;;10.80;99.90;;;;;;5055930;28;20420;-40
2022/04/15 08:18:06;;;;;;;6.40;3.90;;;10.80;99.90;;;;;;5053698;28;20439;-40
2022/04/15 08:20:31;;;;;;;6.50;3.77;;;10.90;99.90;;;;;;5071077;28;20496;-37
2022/04/15 08:22:57;;;;;;;6.93;3.80;;;10.90;99.90;;;;;;5061652;28;20251;-37
2022/04/15 08:25:23;;;;;;;7.80;4.37;;;10.70;99.90;;;;;;5063823;28;20196;-37
2022/04/15 08:27:48;;;;;;;6.13;3.87;;;10.60;99.90;;;;;;5069278;28;20213;-34
2022/04/15 08:30:14;;;;;;;4.63;4.13;;;10.50;99.90;;;;;;5072034;28;20181;-41
2022/04/15 08:32:40;;;;;;;4.73;4.27;;;10.70;99.90;;;;;;5067442;28;20202;-38
2022/04/15 08:35:09;;;;;;;4.10;3.70;;;10.60;99.90;;;;;;5051175;28;20652;-39
2022/04/15 08:37:34;;;;;;;4.40;4.00;;;10.70;99.90;;;;;;5064173;28;20182;-38
2022/04/15 08:40:01;;;;;;;4.50;4.10;;;10.80;99.90;;;;;;5066320;28;20420;-39
2022/04/15 08:42:27;;;;;;;8.83;5.10;;;10.80;99.90;;;;;;5077345;28;20208;-38
2022/04/15 08:44:53;;;;;;;6.90;4.63;;;10.70;99.90;;;;;;5065090;28;20431;-38
2022/04/15 08:47:20;;;;;;;6.43;4.70;;;10.80;99.90;;;;;;5072656;28;20184;-40
2022/04/15 08:49:47;;;;;;;5.20;4.60;;;10.70;99.90;;;;;;5074032;28;20419;-37
2022/04/15 08:52:17;;;;;;;5.10;4.60;;;11.00;99.90;;;;;;5069816;28;20427;-40
2022/04/15 08:54:44;;;;;;;5.73;4.77;;;11.00;99.90;;;;;;5062725;28;20939;-40
2022/04/15 08:57:10;;;;;;;5.33;4.83;;;10.70;99.90;;;;;;5050168;28;20451;-36
2022/04/15 08:59:40;;;;;;;7.20;5.80;;;10.70;99.90;;;;;;5049473;28;20429;-38
2022/04/15 09:02:07;;;;;;;7.37;5.80;;;11.00;99.90;;;;;;5077396;28;20932;-38
2022/04/15 09:04:33;;;;;;;5.73;4.80;;;10.70;99.90;;;;;;5076747;28;20412;-39
2022/04/15 09:07:00;;;;;;;5.97;4.60;;;10.70;99.90;;;;;;5066504;28;20436;-39
2022/04/15 09:09:31;;;;;;;5.70;5.20;;;11.10;99.90;;;;;;5074214;28;20443;-38
2022/04/15 09:11:58;;;;;;;7.93;6.40;;;10.80;99.90;;;;;;5055956;28;21131;-38
2022/04/15 09:14:25;;;;;;;8.20;6.93;;;10.80;99.90;;;;;;5065666;28;20424;-41
2022/04/15 09:16:52;;;;;;;7.37;6.60;;;10.80;99.90;;;;;;5083727;28;21059;-36
2022/04/15 09:19:19;;;;;;;7.90;6.30;;;10.80;99.90;;;;;;5063194;28;20419;-35
2022/04/15 09:21:58;;;;;;;7.70;6.33;;;10.80;99.90;;;;;;5055995;28;20421;-39
2022/04/15 09:24:34;;;;;;;8.70;6.90;;;10.80;99.90;;;;;;5068858;28;20445;-40
2022/04/15 09:27:06;;;;;;;8.47;6.30;;;10.90;99.90;;;;;;5076135;28;20511;-39
2022/04/15 09:29:38;;;;;;;7.70;6.90;;;10.90;99.90;;;;;;5067249;28;20951;-40
2022/04/15 09:32:15;;;;;;;7.47;6.70;;;10.70;99.90;;;;;;5076857;28;20411;-41
2022/04/15 09:35:04;;;;;;;8.70;7.40;;;10.70;99.90;;;;;;5049604;28;20428;-37
2022/04/15 09:37:34;;;;;;;8.03;6.90;;;10.60;99.90;;;;;;5049233;28;20421;-38
2022/04/15 09:40:09;;;;;;;8.67;7.40;;;10.60;99.90;;;;;;5076515;28;20430;-41
2022/04/15 09:42:36;;;;;;;10.27;8.10;;;10.70;99.90;;;;;;5049051;28;20469;-38
2022/04/15 09:45:23;;;;;;;9.03;8.13;;;10.60;99.90;;;;;;5056633;28;20831;-40
2022/04/15 09:47:57;;;;;;;9.87;7.90;;;10.70;99.90;;;;;;5049449;28;20469;-39
2022/04/15 09:50:31;;;;;;;11.30;8.10;;;10.60;99.90;;;;;;5048602;28;20412;-37
2022/04/15 09:53:32;;;;;;;8.20;7.30;;;10.60;99.90;;;;;;5068042;28;20510;-37
2022/04/15 09:55:59;;;;;;;10.27;8.83;;;10.60;99.90;;;;;;5066449;28;20957;-39
2022/04/15 09:58:31;;;;;;;10.33;9.23;;;10.60;99.90;;;;;;5051166;28;20423;-38
2022/04/15 10:01:00;;;;;;;9.37;8.37;;;10.50;99.90;;;;;;5065897;28;20460;-40
2022/04/15 10:03:27;;;;;;;9.40;7.63;;;10.70;99.90;;;;;;5074877;28;20469;-41
2022/04/15 10:05:55;;;;;;;9.67;7.93;;;10.70;99.90;;;;;;5060827;28;20499;-40
2022/04/15 10:08:22;;;;;;;8.67;7.87;;;10.50;99.90;;;;;;5050967;28;20412;-39
2022/04/15 10:10:48;;;;;;;8.40;7.10;;;10.60;99.90;;;;;;5058762;28;20474;-40
2022/04/15 10:13:14;;;;;;;8.10;7.10;;;10.60;99.90;;;;;;5049338;28;20412;-40
2022/04/15 10:15:42;;;;;;;7.00;6.00;;;10.70;99.90;;;;;;5060539;28;20514;-37
2022/04/15 10:18:08;;;;;;;7.80;7.00;;;10.70;99.90;;;;;;5049341;28;20412;-40
2022/04/15 10:20:37;;;;;;;8.03;6.50;;;10.70;99.90;;;;;;5048822;28;20422;-39
2022/04/15 10:23:09;;;;;;;6.60;5.87;;;10.60;99.90;;;;;;5053270;28;20469;-39
2022/04/15 10:25:36;;;;;;;8.77;6.30;;;10.70;99.90;;;;;;5072343;28;20413;-41
2022/04/15 10:28:15;;;;;;;8.10;6.40;;;10.60;99.90;;;;;;5049107;28;20448;-41
2022/04/15 10:31:11;;;;;;;6.63;5.57;;;10.60;99.90;;;;;;5056129;28;20416;-37
2022/04/15 10:33:41;;;;;;;7.03;5.90;;;10.70;99.90;;;;;;5045281;28;20442;-39
2022/04/15 10:36:12;;;;;;;6.10;5.50;;;10.80;99.90;;;;;;5048789;28;20451;-41
2022/04/15 10:39:04;;;;;;;8.60;6.20;;;10.80;99.90;;;;;;5055950;28;20413;-40
2022/04/15 10:41:52;;;;;;;7.40;6.00;;;10.90;99.90;;;;;;5063380;28;20426;-40
2022/04/15 10:44:31;;;;;;;7.17;6.47;;;11.00;99.90;;;;;;5049064;28;20508;-38
2022/04/15 10:47:03;;;;;;;5.93;5.40;;;11.00;99.90;;;;;;5067453;28;20422;-38
2022/04/15 10:49:30;;;;;;;8.47;6.80;;;11.00;99.90;;;;;;5063863;28;20427;-38
2022/04/15 10:52:01;;;;;;;10.70;7.40;;;11.00;99.90;;;;;;5052669;28;20427;-39
2022/04/15 10:54:35;;;;;;;10.37;7.80;;;11.10;99.90;;;;;;5069139;28;20407;-39
2022/04/15 10:57:08;;;;;;;11.67;8.47;;;11.00;99.90;;;;;;5055583;28;20474;-37
2022/04/15 11:02:34;;;;;;;10.07;8.20;;;11.20;99.90;;;;;;5056687;28;20513;-39
2022/04/15 11:05:00;;;;;;;9.53;8.30;;;11.00;99.90;;;;;;5047899;28;20443;-36
2022/04/15 11:07:28;;;;;;;10.07;8.57;;;11.00;99.90;;;;;;5055154;28;20440;-41
2022/04/15 11:09:55;;;;;;;13.03;9.20;;;11.20;99.90;;;;;;5066217;28;20463;-38
2022/04/15 11:12:44;;;;;;;11.33;9.53;;;11.20;99.90;;;;;;5054667;28;20439;-40
2022/04/15 11:15:11;;;;;;;11.43;8.60;;;11.30;99.90;;;;;;5058012;28;20476;-38
2022/04/15 11:17:47;;;;;;;10.80;8.97;;;11.40;99.90;;;;;;5055566;28;20915;-40
2022/04/15 11:20:13;;;;;;;9.50;8.37;;;11.60;99.90;;;;;;5052167;28;20423;-36
2022/04/15 11:22:43;;;;;;;10.77;8.37;;;11.50;99.90;;;;;;5061351;28;20470;-36
2022/04/15 11:25:11;;;;;;;12.40;8.47;;;11.50;99.90;;;;;;5073850;28;20469;-41
2022/04/15 11:27:39;;;;;;;11.03;9.07;;;11.60;99.90;;;;;;5053334;28;20809;-38
2022/04/15 11:30:15;;;;;;;9.03;7.90;;;11.60;99.90;;;;;;5055463;28;20420;-40
2022/04/15 11:32:48;;;;;;;10.73;7.70;;;11.60;99.90;;;;;;5052707;28;20430;-41
2022/04/15 11:35:35;;;;;;;12.10;9.43;;;11.60;99.90;;;;;;5052655;28;20522;-40
2022/04/15 11:38:05;;;;;;;16.13;11.17;;;11.70;99.90;;;;;;5058212;28;20475;-40
2022/04/15 11:40:36;;;;;;;15.57;11.63;;;11.80;99.90;;;;;;5075280;28;20953;-38
2022/04/15 11:43:08;;;;;;;14.77;11.93;;;11.60;99.90;;;;;;5052369;28;20824;-40
2022/04/15 11:45:43;;;;;;;13.17;10.87;;;11.60;99.90;;;;;;5052404;28;20482;-38
2022/04/15 11:48:22;;;;;;;26.13;18.83;;;11.60;99.90;;;;;;5052412;28;20415;-41
2022/04/15 11:50:50;;;;;;;29.17;20.17;;;11.70;99.90;;;;;;5051809;28;20416;-40
2022/04/15 11:53:16;;;;;;;28.63;20.47;;;11.70;99.90;;;;;;5055624;28;20435;-36
2022/04/15 11:55:58;;;;;;;30.87;22.23;;;11.70;99.90;;;;;;5082445;28;20636;-35
2022/04/15 11:58:32;;;;;;;30.03;23.13;;;11.80;99.90;;;;;;5052087;28;20420;-39
2022/04/15 12:01:00;;;;;;;28.07;21.67;;;11.80;99.90;;;;;;5061077;28;20461;-40
2022/04/15 12:03:27;;;;;;;26.60;20.00;;;11.80;99.90;;;;;;5063633;28;20463;-41
2022/04/15 12:05:57;;;;;;;25.80;20.20;;;11.80;99.90;;;;;;5051282;28;20531;-39
2022/04/15 12:08:24;;;;;;;25.80;19.17;;;11.80;99.90;;;;;;5065832;28;20419;-35
2022/04/15 12:10:51;;;;;;;24.00;18.97;;;11.80;99.90;;;;;;5077378;28;20484;-36
2022/04/15 12:13:17;;;;;;;18.63;14.90;;;11.90;99.90;;;;;;5051688;28;20906;-40
2022/04/15 12:15:46;;;;;;;18.77;13.60;;;11.90;99.90;;;;;;5063275;28;20420;-37
2022/04/15 12:18:12;;;;;;;16.90;13.00;;;11.90;99.90;;;;;;5060597;28;20464;-38
2022/04/15 12:20:41;;;;;;;18.50;14.73;;;11.90;99.90;;;;;;5061631;28;20427;-39
2022/04/15 12:23:15;;;;;;;15.80;13.40;;;12.00;99.90;;;;;;5071026;28;20984;-38
2022/04/15 12:31:27;;;;;;;17.13;14.90;;;12.30;99.90;;;;;;5055898;28;20451;-38
2022/04/15 12:33:53;;;;;;;20.13;15.87;;;11.60;99.90;;;;;;5068682;28;20438;-38
2022/04/15 12:36:20;;;;;;;21.30;15.87;;;12.00;99.90;;;;;;5064678;28;20459;-39
2022/04/15 12:39:03;;;;;;;21.97;17.53;;;12.00;99.90;;;;;;5061764;28;20809;-39
2022/04/15 12:41:43;;;;;;;20.30;17.00;;;12.10;99.90;;;;;;5060442;28;20439;-37
2022/04/15 12:44:15;;;;;;;19.00;15.10;;;12.10;99.90;;;;;;5051065;28;20460;-36
2022/04/15 12:46:45;;;;;;;16.00;13.90;;;12.20;99.90;;;;;;5062385;28;20450;-38
2022/04/15 12:49:28;;;;;;;14.50;11.67;;;12.20;99.90;;;;;;5051186;28;20454;-39
2022/04/15 12:52:18;;;;;;;15.17;12.93;;;12.20;99.90;;;;;;5048959;28;20511;-38
2022/04/15 12:55:02;;;;;;;15.37;13.57;;;12.20;99.90;;;;;;5061618;28;20420;-37